createdAt,value
2023-02-12T00:00:42.162Z,87.29
2023-02-12T00:04:04.554Z,87.35
2023-02-12T00:07:06.588Z,87.28
2023-02-12T00:10:09.114Z,87.29
2023-02-12T00:13:11.900Z,87.37
2023-02-12T00:16:17.315Z,87.42
2023-02-12T00:19:19.351Z,87.44
2023-02-12T00:22:21.291Z,87.50
2023-02-12T00:25:23.165Z,87.49
2023-02-12T00:28:25.864Z,87.46
2023-02-12T00:31:30.265Z,87.45
2023-02-12T00:34:32.223Z,87.51
2023-02-12T00:37:34.075Z,87.51
2023-02-12T00:40:35.958Z,87.53
2023-02-12T00:43:38.051Z,87.58
2023-02-12T00:46:40.379Z,87.55
2023-02-12T00:49:42.271Z,87.52
2023-02-12T00:52:44.173Z,87.53
2023-02-12T00:55:46.065Z,87.50
2023-02-12T00:58:47.897Z,87.53
2023-02-12T01:01:51.732Z,87.55
2023-02-12T01:04:53.855Z,87.56
2023-02-12T01:07:59.309Z,87.52
2023-02-12T01:11:03.518Z,87.57
2023-02-12T01:14:06.358Z,87.65
2023-02-12T01:17:09.068Z,87.72
2023-02-12T01:20:16.688Z,87.71
2023-02-12T01:23:18.564Z,87.64
2023-02-12T01:26:21.427Z,87.66
2023-02-12T01:29:23.270Z,87.73
2023-02-12T01:32:25.203Z,87.73
2023-02-12T01:35:27.565Z,87.78
2023-02-12T01:38:30.009Z,87.85
2023-02-12T01:41:35.674Z,87.83
2023-02-12T01:44:44.133Z,87.87
2023-02-12T01:47:46.303Z,87.88
2023-02-12T01:50:50.536Z,87.91
2023-02-12T01:53:55.123Z,87.90
2023-02-12T01:56:58.483Z,87.95
2023-02-12T02:00:02.872Z,87.99
2023-02-12T02:03:05.409Z,87.99
2023-02-12T02:06:15.696Z,88.00
2023-02-12T02:09:18.829Z,88.06
2023-02-12T02:12:39.424Z,87.95
2023-02-12T02:15:47.702Z,87.95
2023-02-12T02:19:04.363Z,87.94
2023-02-12T02:22:26.010Z,87.97
2023-02-12T02:25:49.599Z,87.98
2023-02-12T02:29:28.989Z,88.04
2023-02-12T02:32:39.186Z,88.05
2023-02-12T02:35:52.338Z,87.99
2023-02-12T02:39:35.732Z,87.98
2023-02-12T02:42:46.900Z,87.97
2023-02-12T02:45:55.277Z,87.97
2023-02-12T02:49:04.819Z,87.97
2023-02-12T02:52:13.810Z,87.96
2023-02-12T02:55:19.672Z,87.95
2023-02-12T02:58:43.839Z,87.94
2023-02-12T03:01:55.789Z,87.92
2023-02-12T03:05:44.728Z,87.87
2023-02-12T03:08:54.444Z,87.85
2023-02-12T03:12:02.541Z,87.80
2023-02-12T03:15:13.324Z,87.73
2023-02-12T03:19:01.754Z,87.66
2023-02-12T03:22:11.909Z,87.63
2023-02-12T03:25:17.556Z,87.60
2023-02-12T03:28:25.429Z,87.59
2023-02-12T03:31:42.417Z,87.59
2023-02-12T03:34:57.651Z,87.58
2023-02-12T03:38:07.608Z,87.54
2023-02-12T03:41:12.701Z,87.53
2023-02-12T03:44:43.371Z,87.51
2023-02-12T03:48:23.980Z,87.49
2023-02-12T03:51:37.334Z,87.45
2023-02-12T03:54:39.459Z,87.42
2023-02-12T03:57:47.082Z,87.42
2023-02-12T04:00:50.466Z,87.38
2023-02-12T04:03:52.461Z,87.37
2023-02-12T04:06:55.276Z,87.35
2023-02-12T04:09:57.160Z,87.32
2023-02-12T04:13:18.400Z,87.31
2023-02-12T04:16:27.216Z,87.30
2023-02-12T04:19:47.132Z,87.28
2023-02-12T04:23:04.235Z,87.25
2023-02-12T04:26:34.271Z,87.21
2023-02-12T04:29:47.577Z,87.14
2023-02-12T04:33:07.667Z,87.09
2023-02-12T04:36:17.329Z,87.08
2023-02-12T04:39:24.629Z,87.07
2023-02-12T04:42:26.545Z,87.05
2023-02-12T04:45:32.504Z,87.03
2023-02-12T04:48:37.154Z,87.01
2023-02-12T04:51:39.044Z,86.99
2023-02-12T04:54:40.894Z,86.94
2023-02-12T04:57:42.783Z,86.90
2023-02-12T05:00:44.747Z,86.86
2023-02-12T05:03:46.666Z,86.81
2023-02-12T05:06:48.489Z,86.76
2023-02-12T05:09:50.380Z,86.72
2023-02-12T05:12:53.756Z,86.68
2023-02-12T05:15:55.975Z,86.65
2023-02-12T05:18:58.104Z,86.63
2023-02-12T05:22:00.256Z,86.63
2023-02-12T05:25:02.848Z,86.61
2023-02-12T05:28:04.779Z,86.57
2023-02-12T05:31:10.442Z,86.54
2023-02-12T05:34:13.098Z,86.52
2023-02-12T05:37:14.976Z,86.51
2023-02-12T05:40:17.098Z,86.49
2023-02-12T05:43:18.967Z,86.46
2023-02-12T05:46:21.813Z,86.40
2023-02-12T05:49:23.883Z,86.34
2023-02-12T05:52:25.764Z,86.25
2023-02-12T05:55:27.733Z,86.18
2023-02-12T05:58:29.814Z,86.11
2023-02-12T06:01:34.209Z,86.07
2023-02-12T06:04:36.127Z,86.02
2023-02-12T06:07:37.966Z,85.94
2023-02-12T06:10:39.785Z,85.86
2023-02-12T06:13:41.840Z,85.79
2023-02-12T06:16:46.294Z,85.70
2023-02-12T06:19:48.259Z,85.61
2023-02-12T06:22:50.045Z,85.49
2023-02-12T06:25:56.594Z,85.38
2023-02-12T06:28:58.699Z,85.26
2023-02-12T06:32:01.057Z,85.13
2023-02-12T06:35:03.189Z,85.01
2023-02-12T06:38:05.274Z,84.88
2023-02-12T06:41:07.269Z,84.72
2023-02-12T06:44:11.789Z,84.50
2023-02-12T06:47:13.821Z,84.29
2023-02-12T06:50:16.183Z,84.06
2023-02-12T06:53:18.049Z,83.85
2023-02-12T06:56:21.118Z,83.57
2023-02-12T06:59:22.955Z,83.36
2023-02-12T07:02:24.814Z,83.17
2023-02-12T07:05:26.780Z,83.01
2023-02-12T07:08:28.581Z,82.83
2023-02-12T07:11:36.096Z,82.68
2023-02-12T07:14:39.516Z,82.69
2023-02-12T07:17:42.265Z,82.58
2023-02-12T07:20:44.208Z,82.39
2023-02-12T07:23:51.103Z,82.24
2023-02-12T07:26:53.742Z,81.98
2023-02-12T07:29:55.646Z,81.78
2023-02-12T07:32:57.564Z,81.57
2023-02-12T07:36:01.199Z,81.42
2023-02-12T07:39:03.707Z,81.28
2023-02-12T07:42:07.925Z,81.09
2023-02-12T07:45:10.142Z,80.90
2023-02-12T07:48:12.119Z,80.69
2023-02-12T07:51:18.651Z,80.73
2023-02-12T07:54:20.577Z,80.59
2023-02-12T07:57:22.478Z,80.37
2023-02-12T08:00:24.467Z,80.31
2023-02-12T08:03:28.579Z,80.12
2023-02-12T08:06:32.587Z,79.99
2023-02-12T08:09:34.656Z,79.79
2023-02-12T08:12:36.602Z,79.59
2023-02-12T08:15:38.539Z,79.52
2023-02-12T08:18:41.165Z,79.43
2023-02-12T08:21:43.348Z,79.30
2023-02-12T08:24:45.177Z,79.22
2023-02-12T08:27:47.073Z,79.04
2023-02-12T08:30:49.044Z,78.90
2023-02-12T08:33:52.884Z,78.74
2023-02-12T08:36:56.101Z,78.63
2023-02-12T08:39:58.139Z,78.54
2023-02-12T08:43:00.101Z,78.49
2023-02-12T08:46:03.596Z,78.24
2023-02-12T08:49:13.805Z,78.30
2023-02-12T08:52:15.746Z,78.13
2023-02-12T08:55:17.604Z,77.99
2023-02-12T08:58:19.620Z,78.01
2023-02-12T09:01:24.224Z,77.94
2023-02-12T09:04:28.225Z,77.91
2023-02-12T09:07:30.200Z,77.93
2023-02-12T09:10:32.555Z,77.83
2023-02-12T09:13:34.978Z,77.55
2023-02-12T09:16:39.668Z,77.42
2023-02-12T09:19:41.673Z,77.14
2023-02-12T09:22:43.638Z,76.82
2023-02-12T09:25:46.426Z,76.59
2023-02-12T09:28:49.776Z,77.80
2023-02-12T09:31:51.826Z,80.90
2023-02-12T09:34:53.710Z,81.10
2023-02-12T09:37:55.522Z,79.71
2023-02-12T09:41:28.784Z,77.42
2023-02-12T09:44:42.945Z,75.61
2023-02-12T09:48:06.075Z,71.72
2023-02-12T09:51:09.440Z,68.99
2023-02-12T09:54:18.105Z,67.04
2023-02-12T09:57:31.114Z,65.07
2023-02-12T10:00:33.134Z,63.05
2023-02-12T10:03:35.072Z,62.20
2023-02-12T10:06:46.135Z,61.49
2023-02-12T10:10:25.603Z,60.30
2023-02-12T10:13:33.479Z,57.72
2023-02-12T10:17:05.416Z,56.09
2023-02-12T10:20:07.280Z,56.22
2023-02-12T10:23:18.093Z,56.77
2023-02-12T10:26:47.132Z,58.31
2023-02-12T10:29:50.048Z,59.59
2023-02-12T10:33:02.854Z,60.55
2023-02-12T10:36:22.199Z,60.87
2023-02-12T10:39:37.436Z,61.41
2023-02-12T10:42:43.528Z,63.64
2023-02-12T10:45:45.808Z,65.91
2023-02-12T10:48:53.484Z,65.22
2023-02-12T10:52:14.209Z,64.12
2023-02-12T10:55:26.801Z,62.92
2023-02-12T10:58:29.494Z,61.80
2023-02-12T11:01:37.981Z,60.99
2023-02-12T11:04:39.881Z,60.69
2023-02-12T11:07:51.137Z,60.23
2023-02-12T11:10:53.019Z,58.16
2023-02-12T11:14:05.546Z,56.27
2023-02-12T11:17:25.737Z,56.06
2023-02-12T11:20:40.619Z,57.03
2023-02-12T11:23:46.708Z,58.05
2023-02-12T11:26:48.861Z,59.16
2023-02-12T11:30:12.977Z,59.33
2023-02-12T11:33:17.328Z,59.46
2023-02-12T11:36:26.981Z,60.56
2023-02-12T11:39:34.087Z,61.27
2023-02-12T11:42:37.980Z,61.42
2023-02-12T11:45:50.399Z,62.10
2023-02-12T11:48:54.926Z,62.36
2023-02-12T11:51:59.884Z,62.90
2023-02-12T11:55:06.504Z,63.41
2023-02-12T11:58:17.478Z,64.03
2023-02-12T12:01:27.863Z,63.94
2023-02-12T12:04:33.461Z,64.55
2023-02-12T12:07:38.652Z,65.03
2023-02-12T12:10:55.319Z,65.27
2023-02-12T12:14:25.927Z,65.39
2023-02-12T12:18:16.106Z,65.57
2023-02-12T12:21:39.003Z,65.59
2023-02-12T12:24:51.938Z,66.16
2023-02-12T12:28:26.108Z,66.59
2023-02-12T12:31:37.352Z,66.68
2023-02-12T12:34:40.075Z,67.06
2023-02-12T12:37:58.468Z,67.26
2023-02-12T12:41:19.354Z,67.65
2023-02-12T12:45:05.424Z,67.88
2023-02-12T12:48:49.043Z,68.01
2023-02-12T12:52:10.566Z,68.13
2023-02-12T12:55:40.173Z,68.41
2023-02-12T12:58:44.978Z,68.66
2023-02-12T13:02:05.299Z,68.99
2023-02-12T13:05:18.923Z,69.18
2023-02-12T13:08:39.099Z,69.39
2023-02-12T13:11:52.689Z,69.56
2023-02-12T13:15:00.121Z,69.57
2023-02-12T13:18:07.654Z,69.83
2023-02-12T13:21:20.920Z,69.99
2023-02-12T13:24:37.938Z,70.00
2023-02-12T13:27:40.331Z,70.10
2023-02-12T13:30:47.893Z,70.16
2023-02-12T13:33:57.580Z,70.15
2023-02-12T13:37:00.982Z,70.23
2023-02-12T13:40:06.295Z,70.32
2023-02-12T13:43:39.917Z,70.37
2023-02-12T13:47:12.389Z,70.51
2023-02-12T14:37:39.468Z,70.67
2023-02-12T14:40:47.237Z,70.96
2023-02-12T14:44:03.192Z,70.73
2023-02-12T14:47:34.433Z,70.59
2023-02-12T14:50:43.606Z,70.75
2023-02-12T14:53:48.670Z,70.83
2023-02-12T14:56:52.875Z,70.82
2023-02-12T15:00:16.217Z,70.79
2023-02-12T15:03:22.332Z,70.72
2023-02-12T15:06:37.952Z,70.77
2023-02-12T15:10:10.151Z,70.70
2023-02-12T15:13:20.646Z,70.71
2023-02-12T15:16:36.133Z,70.81
2023-02-12T15:20:06.188Z,70.97
2023-02-12T15:23:36.772Z,71.03
2023-02-12T15:26:45.037Z,71.07
2023-02-12T15:29:53.340Z,71.15
2023-02-12T15:32:59.776Z,71.41
2023-02-12T15:36:04.253Z,71.53
2023-02-12T15:39:09.420Z,71.61
2023-02-12T15:42:35.398Z,71.77
2023-02-12T15:45:53.060Z,71.87
2023-02-12T15:48:56.658Z,71.93
2023-02-12T15:52:04.297Z,71.94
2023-02-12T15:55:16.789Z,73.77
2023-02-12T15:58:25.867Z,73.10
2023-02-12T16:01:35.250Z,72.51
2023-02-12T16:04:42.073Z,72.14
2023-02-12T16:07:46.789Z,72.01
2023-02-12T16:10:53.556Z,71.91
2023-02-12T16:14:00.978Z,71.85
2023-02-12T16:17:04.479Z,71.76
2023-02-12T16:20:19.739Z,71.69
2023-02-12T16:23:23.884Z,71.56
2023-02-12T16:26:28.406Z,71.56
2023-02-12T16:29:34.526Z,71.56
2023-02-12T16:32:41.721Z,71.56
2023-02-12T16:35:45.095Z,71.50
2023-02-12T16:39:11.044Z,71.47
2023-02-12T16:42:17.144Z,71.50
2023-02-12T16:45:27.690Z,71.56
2023-02-12T16:48:37.023Z,71.60
2023-02-12T16:51:40.276Z,72.69
2023-02-12T16:54:43.571Z,72.68
2023-02-12T16:57:46.755Z,72.40
2023-02-12T17:00:53.149Z,72.16
2023-02-12T17:03:58.265Z,71.98
2023-02-12T17:07:02.011Z,71.92
2023-02-12T17:10:05.903Z,71.91
2023-02-12T17:13:10.403Z,71.94
2023-02-12T17:16:29.514Z,72.04
2023-02-12T17:19:35.295Z,72.08
2023-02-12T17:22:38.904Z,72.16
2023-02-12T17:25:42.222Z,72.13
2023-02-12T17:28:45.564Z,72.15
2023-02-12T17:31:49.360Z,72.20
2023-02-12T17:34:53.142Z,72.27
2023-02-12T17:37:56.687Z,72.32
2023-02-12T17:41:00.081Z,72.39
2023-02-12T17:44:03.783Z,72.49
2023-02-12T17:47:07.404Z,72.59
2023-02-12T17:50:14.250Z,72.65
2023-02-12T17:53:17.637Z,72.71
2023-02-12T17:56:23.123Z,72.75
2023-02-12T17:59:26.581Z,72.82
2023-02-12T18:02:29.924Z,72.87
2023-02-12T18:05:33.211Z,73.00
2023-02-12T18:08:36.658Z,73.14
2023-02-12T18:11:42.252Z,73.25
2023-02-12T18:14:45.614Z,73.24
2023-02-12T18:17:49.045Z,73.32
2023-02-12T18:20:52.416Z,73.48
2023-02-12T18:23:55.816Z,73.56
2023-02-12T18:26:59.205Z,73.50
2023-02-12T18:30:02.946Z,73.48
2023-02-12T18:33:06.460Z,73.45
2023-02-12T18:36:16.129Z,73.33
2023-02-12T18:39:19.574Z,73.24
2023-02-12T18:42:23.033Z,73.26
2023-02-12T18:45:26.415Z,73.30
2023-02-12T18:48:29.785Z,73.32
2023-02-12T18:51:38.147Z,73.40
2023-02-12T18:54:41.667Z,73.48
2023-02-12T18:57:45.018Z,73.49
2023-02-12T19:00:48.393Z,73.45
2023-02-12T19:03:59.037Z,73.40
2023-02-12T19:07:02.506Z,73.37
2023-02-12T19:10:06.749Z,73.27
2023-02-12T19:13:11.265Z,73.32
2023-02-12T19:16:17.337Z,73.34
2023-02-12T19:19:21.456Z,73.34
2023-02-12T19:22:24.879Z,73.33
2023-02-12T19:25:28.106Z,73.15
2023-02-12T19:28:31.430Z,73.02
2023-02-12T19:31:37.786Z,73.04
2023-02-12T19:34:41.075Z,72.92
2023-02-12T19:37:44.764Z,72.94
2023-02-12T19:40:47.957Z,73.06
2023-02-12T19:43:58.198Z,73.40
2023-02-12T19:47:01.719Z,74.58
2023-02-12T19:50:05.671Z,74.42
2023-02-12T19:53:08.916Z,74.31
2023-02-12T19:56:12.783Z,74.31
2023-02-12T19:59:18.356Z,74.33
2023-02-12T20:02:21.694Z,74.37
2023-02-12T20:05:25.020Z,74.47
2023-02-12T20:08:28.463Z,74.63
2023-02-12T20:11:33.355Z,74.84
2023-02-12T20:14:36.690Z,75.04
2023-02-12T20:17:40.046Z,75.13
2023-02-12T20:20:43.514Z,75.18
2023-02-12T20:23:47.200Z,75.25
2023-02-12T20:26:51.276Z,75.32
2023-02-12T20:29:54.661Z,75.36
2023-02-12T20:32:57.984Z,75.48
2023-02-12T20:36:01.494Z,75.73
2023-02-12T20:39:07.378Z,75.98
2023-02-12T20:42:11.997Z,76.19
2023-02-12T20:45:15.402Z,76.42
2023-02-12T20:48:21.059Z,76.61
2023-02-12T20:51:26.718Z,76.74
2023-02-12T20:54:30.174Z,76.87
2023-02-12T20:57:34.812Z,77.06
2023-02-12T21:00:38.190Z,77.20
2023-02-12T21:03:42.092Z,77.31
2023-02-12T21:06:46.072Z,77.40
2023-02-12T21:09:50.269Z,77.53
2023-02-12T21:12:53.652Z,77.64
2023-02-12T21:16:08.234Z,77.78
2023-02-12T21:19:14.044Z,77.97
2023-02-12T21:22:17.853Z,78.12
2023-02-12T21:25:21.198Z,78.23
2023-02-12T21:28:24.584Z,78.29
2023-02-12T21:31:36.413Z,78.33
2023-02-12T21:34:39.816Z,78.36
2023-02-12T21:37:43.160Z,78.37
2023-02-12T21:40:46.578Z,78.42
2023-02-12T21:43:52.829Z,78.53
2023-02-12T21:46:57.664Z,78.66
2023-02-12T21:50:01.045Z,78.84
2023-02-12T21:53:04.517Z,78.97
2023-02-12T21:56:07.859Z,79.05
2023-02-12T21:59:12.283Z,79.12
2023-02-12T22:02:15.619Z,79.18
2023-02-12T22:05:18.876Z,79.23
2023-02-12T22:08:24.232Z,79.29
2023-02-12T22:11:28.144Z,79.32
2023-02-12T22:14:31.622Z,79.37
2023-02-12T22:17:35.121Z,79.39
2023-02-12T22:20:38.677Z,79.44
2023-02-12T22:23:43.536Z,79.49
2023-02-12T22:26:46.977Z,79.47
2023-02-12T22:29:50.660Z,79.50
2023-02-12T22:32:53.893Z,79.49
2023-02-12T22:36:03.516Z,79.55
2023-02-12T22:39:08.185Z,79.62
2023-02-12T22:42:11.656Z,79.65
2023-02-12T22:45:15.130Z,79.65
2023-02-12T22:48:18.399Z,79.67
2023-02-12T22:51:27.586Z,79.69
2023-02-12T22:54:31.073Z,79.76
2023-02-12T22:57:34.415Z,79.76
2023-02-12T23:00:38.513Z,79.76
2023-02-12T23:03:42.594Z,79.78
2023-02-12T23:06:46.224Z,79.76
2023-02-12T23:09:49.533Z,79.74
2023-02-12T23:12:53.043Z,79.74
2023-02-12T23:15:57.133Z,79.73
2023-02-12T23:19:01.650Z,79.74
2023-02-12T23:22:05.023Z,79.73
2023-02-12T23:25:08.797Z,79.74
2023-02-12T23:28:12.148Z,79.75
2023-02-12T23:31:15.667Z,79.74
2023-02-12T23:34:19.581Z,79.73
2023-02-12T23:37:23.821Z,79.72
2023-02-12T23:40:27.337Z,79.72
2023-02-12T23:43:30.648Z,79.74
2023-02-12T23:46:34.121Z,79.71
2023-02-12T23:49:37.996Z,79.74
2023-02-12T23:52:41.281Z,79.75
2023-02-12T23:55:45.320Z,79.77
2023-02-12T23:58:48.610Z,79.82
